Time;durP1;ratioP1;P1;durP2;ratioP2;P2;SDS_P1;SDS_P2;PMS_P1;PMS_P2;Temp;Humidity;BMP_temperature;BMP_pressure;BME280_temperature;BME280_humidity;BME280_pressure;Samples;Min_cycle;Max_cycle;Signal;HPM_P1;HPM_P2
2022/03/13 00:00:29;;;;;;;1999.90;999.90;;;;;;;1.13;44.89;162700.13;4994129;28;20138;-67
2022/03/13 00:02:56;;;;;;;1999.90;999.90;;;;;;;1.19;44.82;162716.53;4956096;28;20401;-70
2022/03/13 00:05:23;;;;;;;1999.90;999.90;;;;;;;1.08;43.33;162685.06;4955263;28;20055;-67
2022/03/13 00:07:54;;;;;;;1999.90;999.90;;;;;;;0.97;45.19;162657.69;4939785;28;20552;-68
2022/03/13 00:10:27;;;;;;;1999.90;999.90;;;;;;;0.84;42.65;162622.09;4980878;28;20058;-68
2022/03/13 00:12:54;;;;;;;1999.90;999.90;;;;;;;0.88;41.98;162634.41;4956811;28;20095;-67
2022/03/13 00:15:31;;;;;;;1999.90;999.90;;;;;;;1.38;42.58;162767.13;4962153;28;20088;-68
2022/03/13 00:17:59;;;;;;;1999.90;999.90;;;;;;;1.29;42.61;162741.13;4970515;28;20054;-69
2022/03/13 00:20:27;;;;;;;1999.90;999.90;;;;;;;1.01;43.57;162668.63;4978692;28;20094;-69
2022/03/13 00:22:54;;;;;;;1999.90;999.90;;;;;;;0.88;43.43;162633.06;4983216;28;20141;-67
2022/03/13 00:25:21;;;;;;;1999.90;999.90;;;;;;;0.86;42.81;162627.56;4973307;28;20344;-67
2022/03/13 00:27:48;;;;;;;1999.90;999.90;;;;;;;0.99;42.15;162663.13;4966516;28;20502;-67
2022/03/13 00:30:16;;;;;;;1999.90;999.90;;;;;;;1.12;41.50;162696.00;4963124;28;20714;-66
2022/03/13 00:32:44;;;;;;;1999.90;999.90;;;;;;;1.34;41.64;162756.22;4948877;28;20397;-68
2022/03/13 00:35:11;;;;;;;1999.90;999.90;;;;;;;1.29;41.99;162742.50;4946276;28;20113;-68
2022/03/13 00:37:37;;;;;;;1999.90;999.90;;;;;;;1.42;41.53;162775.38;4979675;28;20444;-67
2022/03/13 00:40:12;;;;;;;1999.90;999.90;;;;;;;1.70;40.70;162852.00;4964922;28;20039;-67
2022/03/13 00:42:39;;;;;;;1999.90;999.90;;;;;;;1.63;41.05;162831.47;4959915;28;20058;-68
2022/03/13 00:45:06;;;;;;;1999.90;999.90;;;;;;;1.57;41.32;162816.41;4969398;28;20336;-68
2022/03/13 00:47:32;;;;;;;1999.90;999.90;;;;;;;1.76;40.88;162868.41;4958395;28;20054;-68
2022/03/13 00:49:59;;;;;;;1999.90;999.90;;;;;;;1.89;41.11;162901.25;4978535;28;20059;-68
2022/03/13 00:52:25;;;;;;;1999.90;999.90;;;;;;;1.57;41.89;162817.75;4970896;28;20378;-68
2022/03/13 00:54:52;;;;;;;1999.90;999.90;;;;;;;1.32;42.44;162750.69;4961532;28;20062;-68
2022/03/13 00:57:19;;;;;;;1999.90;999.90;;;;;;;0.98;42.98;162660.44;4969377;28;20348;-68
2022/03/13 00:59:46;;;;;;;1999.90;999.90;;;;;;;1.34;43.01;162754.81;4960405;28;20101;-68
2022/03/13 01:02:14;;;;;;;1999.90;999.90;;;;;;;1.31;43.69;162748.00;4966622;28;20051;-69
2022/03/13 01:04:41;;;;;;;1999.90;999.90;;;;;;;1.36;43.71;162761.66;4956724;28;20098;-68
2022/03/13 01:07:08;;;;;;;1999.90;999.90;;;;;;;1.46;43.43;162787.69;4980062;28;20054;-68
2022/03/13 01:09:35;;;;;;;1999.90;999.90;;;;;;;1.58;43.80;162820.50;4963919;28;20050;-67
2022/03/13 01:12:01;;;;;;;1999.90;999.90;;;;;;;1.39;44.77;162769.88;4964054;28;20475;-68
2022/03/13 01:14:28;;;;;;;1999.90;999.90;;;;;;;1.21;46.06;162721.97;4974751;28;20055;-68
2022/03/13 01:17:03;;;;;;;1999.90;999.90;;;;;;;0.97;46.03;162657.69;4949992;28;20057;-69
2022/03/13 01:19:30;;;;;;;1999.90;999.90;;;;;;;0.64;46.73;162570.13;4969296;28;20046;-68
2022/03/13 01:21:57;;;;;;;1999.90;999.90;;;;;;;0.90;45.76;162637.16;4958142;28;20063;-68
2022/03/13 01:24:36;;;;;;;1999.90;999.90;;;;;;;1.21;45.16;162721.97;4969571;28;20065;-68
2022/03/13 01:27:03;;;;;;;1999.90;999.90;;;;;;;1.39;46.13;162769.88;4956524;28;20059;-68
2022/03/13 01:29:32;;;;;;;1999.90;999.90;;;;;;;0.94;45.86;162648.06;4960824;28;20047;-68
2022/03/13 01:32:00;;;;;;;1999.90;999.90;;;;;;;0.97;46.49;162657.69;4961090;28;20055;-68
2022/03/13 01:34:33;;;;;;;1999.90;999.90;;;;;;;1.10;45.63;162690.50;4949667;28;20352;-68
2022/03/13 01:37:00;;;;;;;1999.90;999.90;;;;;;;1.19;45.95;162716.53;4968366;28;20047;-68
2022/03/13 01:39:28;;;;;;;1999.90;999.90;;;;;;;1.20;45.74;162719.22;4963941;28;20089;-68
2022/03/13 01:41:55;;;;;;;1999.90;999.90;;;;;;;1.28;45.62;162738.38;4982801;28;20340;-68
2022/03/13 01:44:22;;;;;;;1999.90;999.90;;;;;;;1.31;45.25;162748.00;4955532;28;20073;-68
2022/03/13 01:46:48;;;;;;;1999.90;999.90;;;;;;;1.34;45.54;162754.81;4969196;28;20059;-68
2022/03/13 01:49:16;;;;;;;1999.90;999.90;;;;;;;1.53;44.75;162805.44;4965577;28;20431;-68
2022/03/13 01:51:42;;;;;;;1999.90;999.90;;;;;;;1.49;45.07;162794.50;4968832;28;20058;-69
2022/03/13 01:54:12;;;;;;;1999.90;999.90;;;;;;;1.53;44.46;162806.84;4972277;28;20102;-68
2022/03/13 01:56:40;;;;;;;1999.90;999.90;;;;;;;0.90;47.04;162637.16;4961608;28;20058;-68
2022/03/13 01:59:09;;;;;;;1999.90;999.90;;;;;;;0.79;46.38;162609.81;4963302;28;20046;-68
2022/03/13 02:01:36;;;;;;;1999.90;999.90;;;;;;;0.80;46.49;162612.50;4951028;28;20063;-68
2022/03/13 02:04:03;;;;;;;1999.90;999.90;;;;;;;1.06;46.45;162680.94;4969516;28;20399;-68
2022/03/13 02:06:30;;;;;;;1999.90;999.90;;;;;;;1.34;46.39;162756.22;4963122;28;20410;-68
2022/03/13 02:08:57;;;;;;;1999.90;999.90;;;;;;;1.49;47.55;162794.50;4977311;28;20051;-68
2022/03/13 02:11:28;;;;;;;1999.90;999.90;;;;;;;1.43;46.75;162778.06;4969386;28;20077;-68
2022/03/13 02:13:55;;;;;;;1999.90;999.90;;;;;;;1.47;48.91;162790.38;4964198;28;20054;-68
2022/03/13 02:16:24;;;;;;;1999.90;999.90;;;;;;;1.45;48.44;162784.94;4980087;28;20050;-68
2022/03/13 02:18:53;;;;;;;1999.90;999.90;;;;;;;1.34;48.80;162756.22;4955100;28;20153;-69
2022/03/13 02:21:24;;;;;;;1999.90;999.90;;;;;;;1.16;47.90;162708.31;4967001;28;20089;-68
2022/03/13 02:23:51;;;;;;;1999.90;999.90;;;;;;;1.00;47.36;162665.88;4960793;28;20073;-68
2022/03/13 02:26:20;;;;;;;1999.90;999.90;;;;;;;1.01;48.46;162668.63;4965731;28;20510;-68
2022/03/13 02:28:55;;;;;;;1999.90;999.90;;;;;;;1.09;50.43;162687.75;4953604;28;20050;-68
2022/03/13 02:31:30;;;;;;;1999.90;999.90;;;;;;;1.05;49.63;162679.53;4956846;28;20083;-68
2022/03/13 02:33:57;;;;;;;1999.90;999.90;;;;;;;1.11;49.98;162693.25;4968820;28;20051;-68
2022/03/13 02:36:34;;;;;;;1999.90;999.90;;;;;;;1.06;50.48;162680.94;4966822;28;20047;-68
2022/03/13 02:39:03;;;;;;;1999.90;999.90;;;;;;;1.12;50.86;162696.00;4963237;28;20325;-68
2022/03/13 02:41:29;;;;;;;1999.90;999.90;;;;;;;1.08;51.14;162685.06;4952008;28;20069;-68
2022/03/13 02:43:57;;;;;;;1999.90;999.90;;;;;;;1.05;51.47;162679.53;4964813;28;20058;-68
2022/03/13 02:47:01;;;;;;;1999.90;999.90;;;;;;;0.99;51.59;162663.13;4970885;28;20061;-69
2022/03/13 02:49:29;;;;;;;1999.90;999.90;;;;;;;0.94;51.63;162649.47;4967419;28;20357;-68
2022/03/13 02:52:00;;;;;;;1999.90;999.90;;;;;;;0.74;50.05;162594.75;4968028;28;20816;-68
2022/03/13 02:54:27;;;;;;;1999.90;999.90;;;;;;;0.58;52.59;162553.72;4956907;28;20379;-68
2022/03/13 02:56:54;;;;;;;1999.90;999.90;;;;;;;0.77;52.97;162602.94;4964171;28;20059;-68
2022/03/13 02:59:21;;;;;;;1999.90;999.90;;;;;;;0.83;53.25;162619.34;4959100;28;20605;-68
2022/03/13 03:01:48;;;;;;;1999.90;999.90;;;;;;;0.88;52.76;162633.06;4967600;28;20046;-68
2022/03/13 03:04:16;;;;;;;1999.90;999.90;;;;;;;0.75;53.17;162597.50;4957353;28;20058;-68
2022/03/13 03:07:01;;;;;;;1999.90;999.90;;;;;;;0.68;52.76;162581.03;4966965;28;20062;-68
2022/03/13 03:09:29;;;;;;;1999.90;999.90;;;;;;;0.50;50.96;162533.19;4953329;28;20055;-68
2022/03/13 03:11:57;;;;;;;1999.90;999.90;;;;;;;0.34;51.37;162490.81;4968676;28;20043;-68
2022/03/13 03:14:24;;;;;;;1999.90;999.90;;;;;;;0.59;51.28;162555.09;4974290;28;20054;-68
2022/03/13 03:16:50;;;;;;;1999.90;999.90;;;;;;;0.64;53.42;162570.13;4957896;28;20054;-67
2022/03/13 03:19:17;;;;;;;1999.90;999.90;;;;;;;0.67;52.86;162578.34;4968596;28;20076;-67
2022/03/13 03:21:44;;;;;;;1999.90;999.90;;;;;;;0.46;52.99;162520.88;4959681;28;20374;-67
2022/03/13 03:24:16;;;;;;;1999.90;999.90;;;;;;;0.48;52.42;162526.38;4986644;28;20058;-67
2022/03/13 03:26:44;;;;;;;1999.90;999.90;;;;;;;0.48;51.22;162526.38;4976375;28;20101;-67
2022/03/13 03:29:10;;;;;;;1999.90;999.90;;;;;;;0.58;50.58;162553.72;4956413;28;20511;-67
2022/03/13 03:31:45;;;;;;;1999.90;999.90;;;;;;;0.58;50.33;162553.72;4970219;28;20074;-68
2022/03/13 03:34:16;;;;;;;1999.90;999.90;;;;;;;0.67;50.69;162578.34;4959114;28;20109;-68
2022/03/13 03:36:48;;;;;;;1999.90;999.90;;;;;;;0.70;51.76;162585.19;4962768;28;20047;-67
2022/03/13 03:39:17;;;;;;;1999.90;999.90;;;;;;;0.68;50.92;162581.03;4954929;28;20149;-68
2022/03/13 03:41:47;;;;;;;1999.90;999.90;;;;;;;0.46;50.09;162520.88;4968155;28;20059;-68
2022/03/13 03:44:14;;;;;;;1999.90;999.90;;;;;;;0.49;52.27;162530.47;4967251;28;20066;-68
2022/03/13 03:46:43;;;;;;;1999.90;999.90;;;;;;;0.64;51.96;162570.13;4962927;28;20054;-68
2022/03/13 03:49:10;;;;;;;1999.90;999.90;;;;;;;0.34;50.81;162489.41;4965622;28;20727;-67
2022/03/13 03:51:38;;;;;;;1999.90;999.90;;;;;;;0.05;50.14;162411.50;4960711;28;20058;-67
2022/03/13 03:54:06;;;;;;;1999.90;999.90;;;;;;;-0.32;49.62;162313.09;4989193;28;20069;-67
2022/03/13 03:56:33;;;;;;;1999.90;999.90;;;;;;;-0.17;49.40;162354.06;4967267;28;20452;-67
2022/03/13 03:59:00;;;;;;;1999.90;999.90;;;;;;;0.21;48.27;162455.25;4983727;28;20435;-67
2022/03/13 04:01:29;;;;;;;1999.90;999.90;;;;;;;0.56;48.62;162546.88;4971834;28;20091;-67
2022/03/13 04:03:56;;;;;;;1999.90;999.90;;;;;;;0.75;49.09;162597.50;4959590;28;20054;-67
2022/03/13 04:06:22;;;;;;;1999.90;999.90;;;;;;;0.58;47.85;162553.72;4966668;28;20062;-67
2022/03/13 04:08:49;;;;;;;1999.90;999.90;;;;;;;0.69;48.46;162583.78;4968121;28;20083;-67
2022/03/13 04:11:16;;;;;;;1999.90;999.90;;;;;;;0.79;51.05;162608.41;4970010;28;20061;-67
2022/03/13 04:13:42;;;;;;;1999.90;999.90;;;;;;;0.67;48.67;162576.94;4962036;28;20058;-67
2022/03/13 04:16:12;;;;;;;1999.90;999.90;;;;;;;0.79;47.65;162609.81;4970516;28;20340;-68
2022/03/13 04:18:39;;;;;;;1999.90;999.90;;;;;;;0.64;48.58;162570.13;4957001;28;20145;-67
2022/03/13 04:21:06;;;;;;;1999.90;999.90;;;;;;;0.73;47.79;162593.41;4974083;28;20051;-67
2022/03/13 04:23:35;;;;;;;1999.90;999.90;;;;;;;0.68;47.64;162581.03;4970073;28;20054;-67
2022/03/13 04:26:05;;;;;;;1999.90;999.90;;;;;;;0.70;49.18;162586.53;4966049;28;20487;-68
2022/03/13 04:28:33;;;;;;;1999.90;999.90;;;;;;;0.71;50.95;162587.91;4968939;28;20055;-68
2022/03/13 04:31:00;;;;;;;1999.90;999.90;;;;;;;0.64;52.51;162570.13;4958576;28;20057;-67
2022/03/13 04:33:28;;;;;;;1999.90;999.90;;;;;;;0.61;51.56;162561.94;4965399;28;20054;-67
2022/03/13 04:36:00;;;;;;;1999.90;999.90;;;;;;;0.34;50.95;162489.41;4968298;28;20081;-68
2022/03/13 04:38:27;;;;;;;1999.90;999.90;;;;;;;0.16;50.30;162441.56;4970335;28;20089;-68
2022/03/13 04:40:56;;;;;;;1999.90;999.90;;;;;;;0.21;51.41;162455.25;4971581;28;20286;-68
2022/03/13 04:43:23;;;;;;;1999.90;999.90;;;;;;;0.35;52.44;162492.16;4961874;28;20055;-68
2022/03/13 04:45:51;;;;;;;1999.90;999.90;;;;;;;0.34;52.49;162489.41;4965720;28;20061;-68
2022/03/13 04:48:18;;;;;;;1999.90;999.90;;;;;;;0.06;51.04;162414.22;4952171;28;20057;-68
2022/03/13 04:50:46;;;;;;;1999.90;999.90;;;;;;;-0.28;51.31;162324.00;4973093;28;20051;-68
2022/03/13 04:53:13;;;;;;;1999.90;999.90;;;;;;;-0.19;51.14;162348.63;4947349;28;20613;-68
2022/03/13 04:55:40;;;;;;;1999.90;999.90;;;;;;;0.14;50.89;162437.47;4969264;28;20333;-68
2022/03/13 04:58:12;;;;;;;1999.90;999.90;;;;;;;0.33;53.37;162486.72;4997981;28;20055;-68
2022/03/13 05:00:39;;;;;;;1999.90;999.90;;;;;;;0.27;54.12;162471.66;4962696;28;20076;-68
2022/03/13 05:03:07;;;;;;;1999.90;999.90;;;;;;;0.22;54.14;162456.63;4965324;28;20059;-68
2022/03/13 05:05:34;;;;;;;1999.90;999.90;;;;;;;0.10;54.11;162425.16;4957966;28;20059;-68
2022/03/13 05:08:05;;;;;;;1999.90;999.90;;;;;;;-0.01;54.72;162397.81;4970547;28;20094;-68
2022/03/13 05:10:39;;;;;;;1999.90;999.90;;;;;;;-0.31;55.44;162315.78;4977423;28;20184;-68
2022/03/13 05:13:07;;;;;;;1999.90;999.90;;;;;;;-0.30;55.68;162318.53;4966869;28;20501;-68
2022/03/13 05:15:36;;;;;;;1999.90;999.90;;;;;;;-0.48;54.31;162272.06;4964243;28;20065;-69
2022/03/13 05:18:03;;;;;;;1999.90;999.90;;;;;;;-0.27;53.17;162326.72;4966423;28;20050;-70
2022/03/13 05:20:36;;;;;;;1999.90;999.90;;;;;;;-0.11;53.21;162370.47;4973308;28;20109;-68
2022/03/13 05:23:05;;;;;;;1999.90;999.90;;;;;;;-0.65;54.16;162226.97;4962149;28;20046;-68
2022/03/13 05:25:32;;;;;;;1999.90;999.90;;;;;;;-1.01;54.72;162129.94;4970273;28;20687;-67
2022/03/13 05:27:59;;;;;;;1999.90;999.90;;;;;;;-1.05;55.47;162119.06;4960346;28;20108;-68
2022/03/13 05:30:27;;;;;;;1999.90;999.90;;;;;;;-0.81;54.55;162184.59;4971554;28;20645;-68
2022/03/13 05:32:54;;;;;;;1999.90;999.90;;;;;;;-0.54;53.49;162257.06;4966641;28;20050;-67
2022/03/13 05:35:21;;;;;;;1999.90;999.90;;;;;;;-0.11;52.68;162370.47;4967141;28;20058;-68
2022/03/13 05:37:47;;;;;;;1999.90;999.90;;;;;;;-0.03;53.63;162392.38;4977060;28;20392;-67
2022/03/13 05:40:16;;;;;;;1999.90;999.90;;;;;;;0.09;51.91;162423.81;4949750;28;20054;-68
2022/03/13 05:42:47;;;;;;;1999.90;999.90;;;;;;;0.18;51.57;162447.06;4972510;28;20116;-69
2022/03/13 05:45:15;;;;;;;;;;;;;;;0.10;51.41;162426.50;4960007;28;20486;-67
2022/03/13 05:47:49;;;;;;;1999.90;999.90;;;;;;;0.32;51.36;162485.31;4968184;28;19936;-67
2022/03/13 05:50:17;;;;;;;1999.90;999.90;;;;;;;0.61;51.62;162560.53;4974972;28;20414;-67
2022/03/13 05:52:45;;;;;;;1999.90;999.90;;;;;;;0.65;52.33;162572.84;4964700;28;20054;-67
2022/03/13 05:55:13;;;;;;;1999.90;999.90;;;;;;;0.81;53.15;162615.25;4962174;28;20082;-67
2022/03/13 05:57:40;;;;;;;1999.90;999.90;;;;;;;0.99;51.14;162661.78;4958443;28;20055;-67
2022/03/13 06:00:09;;;;;;;1999.90;999.90;;;;;;;0.94;50.44;162648.06;4977061;28;20055;-68
2022/03/13 06:02:38;;;;;;;1999.90;999.90;;;;;;;0.96;50.21;162654.94;4958013;28;20062;-67
2022/03/13 06:05:09;;;;;;;1999.90;999.90;;;;;;;0.98;50.78;162660.44;4969885;28;20350;-69
2022/03/13 06:07:40;;;;;;;1999.90;999.90;;;;;;;1.10;50.70;162691.84;4969192;28;20068;-68
2022/03/13 06:10:14;;;;;;;1999.90;999.90;;;;;;;1.11;49.99;162693.25;4967619;28;20057;-67
2022/03/13 06:12:41;;;;;;;1999.90;999.90;;;;;;;1.20;49.17;162719.22;4963563;28;20062;-68
2022/03/13 06:15:11;;;;;;;1999.90;999.90;;;;;;;1.36;48.57;162761.66;4958898;28;20341;-69
2022/03/13 06:17:40;;;;;;;1999.90;999.90;;;;;;;1.30;48.79;162743.91;4963539;28;20106;-68
2022/03/13 06:20:08;;;;;;;1999.90;999.90;;;;;;;1.54;48.70;162808.19;4973143;28;20061;-68
2022/03/13 06:22:35;;;;;;;1999.90;999.90;;;;;;;1.26;48.43;162734.28;4966291;28;20057;-68
2022/03/13 06:25:01;;;;;;;1999.90;999.90;;;;;;;1.55;48.48;162812.31;4948413;28;20355;-68
2022/03/13 06:27:29;;;;;;;1999.90;999.90;;;;;;;1.79;47.60;162875.28;4966214;28;20360;-68
2022/03/13 06:30:01;;;;;;;1999.90;999.90;;;;;;;1.89;47.00;162901.25;4966635;28;20054;-68
2022/03/13 06:32:28;;;;;;;1999.90;999.90;;;;;;;2.10;47.16;162957.44;4958997;28;20070;-68
2022/03/13 06:34:55;;;;;;;1999.90;999.90;;;;;;;2.31;47.32;163012.16;4968707;28;20137;-68
2022/03/13 06:37:21;;;;;;;1999.90;999.90;;;;;;;2.44;46.89;163049.19;4962897;28;20050;-68
2022/03/13 06:39:48;;;;;;;1999.90;999.90;;;;;;;2.58;45.99;163086.16;4971274;28;20042;-68
2022/03/13 06:42:15;;;;;;;1999.90;999.90;;;;;;;2.13;46.07;162964.25;4958274;28;20061;-68
2022/03/13 06:44:43;;;;;;;1999.90;999.90;;;;;;;2.63;45.08;163099.88;4974204;28;20332;-68
2022/03/13 06:47:09;;;;;;;1999.90;999.90;;;;;;;2.73;45.30;163124.50;4970166;28;20459;-68
2022/03/13 06:49:36;;;;;;;1999.90;999.90;;;;;;;3.08;44.31;163219.06;4959760;28;20055;-68
2022/03/13 06:52:03;;;;;;;1999.90;999.90;;;;;;;3.20;43.80;163249.16;4966151;28;20065;-68
2022/03/13 06:54:29;;;;;;;1999.90;999.90;;;;;;;3.43;43.71;163310.88;4954009;28;20054;-69
2022/03/13 06:56:56;;;;;;;1999.90;999.90;;;;;;;3.06;43.11;163212.19;4969355;28;20074;-69
2022/03/13 06:59:22;;;;;;;1999.90;999.90;;;;;;;3.53;42.57;163339.63;4960532;28;20054;-69
2022/03/13 07:01:49;;;;;;;1999.90;999.90;;;;;;;3.36;41.98;163293.00;4974157;28;20356;-68
2022/03/13 07:04:16;;;;;;;1999.90;999.90;;;;;;;3.60;41.79;163356.06;4964536;28;20050;-68
2022/03/13 07:06:42;;;;;;;1999.90;999.90;;;;;;;3.54;42.44;163340.97;4964578;28;20050;-68
2022/03/13 07:09:09;;;;;;;1999.90;999.90;;;;;;;3.27;42.36;163268.38;4977796;28;20549;-68
2022/03/13 07:11:36;;;;;;;1999.90;999.90;;;;;;;3.50;39.81;163331.41;4956344;28;20069;-68
2022/03/13 07:14:08;;;;;;;1999.90;999.90;;;;;;;3.16;39.68;163240.94;4997638;28;20846;-68
2022/03/13 07:16:34;;;;;;;1999.90;999.90;;;;;;;3.77;38.36;163401.34;4966222;28;20716;-68
2022/03/13 07:19:01;;;;;;;1999.90;999.90;;;;;;;3.84;37.60;163420.50;4965667;28;20050;-68
2022/03/13 07:21:27;;;;;;;1999.90;999.90;;;;;;;3.88;38.23;163432.88;4964605;28;20140;-68
2022/03/13 07:23:54;;;;;;;1999.90;999.90;;;;;;;4.37;37.82;163561.75;4955725;28;20047;-68
2022/03/13 07:26:20;;;;;;;1999.90;999.90;;;;;;;4.49;36.87;163594.66;4971135;28;20059;-68
2022/03/13 07:28:47;;;;;;;1999.90;999.90;;;;;;;3.99;36.33;163460.25;4968593;28;20058;-68
2022/03/13 07:31:13;;;;;;;1999.90;999.90;;;;;;;4.15;35.68;163502.75;4972345;28;20050;-68
2022/03/13 07:33:40;;;;;;;1999.90;999.90;;;;;;;4.85;34.86;163689.31;4961421;28;20100;-68
2022/03/13 07:36:06;;;;;;;1999.90;999.90;;;;;;;5.22;34.09;163788.09;4970963;28;20113;-67
2022/03/13 07:38:33;;;;;;;1999.90;999.90;;;;;;;5.34;33.30;163821.03;4979556;28;20106;-67
2022/03/13 07:41:00;;;;;;;1999.90;999.90;;;;;;;5.58;33.12;163884.16;4976251;28;20435;-67
2022/03/13 07:43:26;;;;;;;1999.90;999.90;;;;;;;5.29;32.78;163808.66;4984573;28;20425;-67
2022/03/13 07:45:53;;;;;;;1999.90;999.90;;;;;;;5.14;32.73;163767.53;4970327;28;20047;-67
2022/03/13 07:48:19;;;;;;;1999.90;999.90;;;;;;;5.59;33.57;163886.91;4970793;28;20085;-67
2022/03/13 07:50:46;;;;;;;1999.90;999.90;;;;;;;6.07;32.75;164014.63;4969293;28;20058;-68
2022/03/13 07:53:13;;;;;;;1999.90;999.90;;;;;;;6.22;33.29;164055.81;4965463;28;20514;-67
2022/03/13 07:55:41;;;;;;;1999.90;999.90;;;;;;;5.90;33.23;163969.28;4976524;28;20053;-67
2022/03/13 07:58:08;;;;;;;1999.90;999.90;;;;;;;5.97;33.16;163989.94;4964866;28;20085;-67
2022/03/13 08:00:34;;;;;;;1999.90;999.90;;;;;;;5.75;31.97;163930.84;4973967;28;20380;-68
2022/03/13 08:03:01;;;;;;;1999.90;999.90;;;;;;;5.95;32.25;163984.34;4957481;28;20058;-68
2022/03/13 08:05:28;;;;;;;1999.90;999.90;;;;;;;6.54;31.80;164139.63;4983422;28;20056;-67
2022/03/13 08:07:56;;;;;;;1999.90;999.90;;;;;;;7.02;31.70;164268.75;4972920;28;20054;-67
2022/03/13 08:10:24;;;;;;;1999.90;999.90;;;;;;;7.11;31.39;164293.47;4964851;28;20051;-67
2022/03/13 08:12:53;;;;;;;1999.90;999.90;;;;;;;7.26;30.44;164331.97;4979212;28;20620;-67
2022/03/13 08:15:20;;;;;;;1999.90;999.90;;;;;;;7.63;30.33;164432.28;4965805;28;20420;-67
2022/03/13 08:17:47;;;;;;;1999.90;999.90;;;;;;;7.25;30.09;164330.59;4977778;28;20054;-67
2022/03/13 08:20:14;;;;;;;1999.90;999.90;;;;;;;7.73;30.53;164459.78;4954829;28;20046;-67
2022/03/13 08:22:41;;;;;;;1999.90;999.90;;;;;;;7.66;29.86;164439.16;4971989;28;20518;-67
2022/03/13 08:25:08;;;;;;;1999.90;999.90;;;;;;;7.84;30.05;164487.25;4962020;28;20043;-68
2022/03/13 08:27:35;;;;;;;1999.90;999.90;;;;;;;7.73;29.64;164459.78;4970820;28;20058;-67
2022/03/13 08:30:03;;;;;;;1999.90;999.90;;;;;;;8.09;29.39;164554.63;4979594;28;20051;-67
2022/03/13 08:32:30;;;;;;;1999.90;999.90;;;;;;;7.84;29.14;164487.25;4962471;28;20062;-67
2022/03/13 08:34:56;;;;;;;1999.90;999.90;;;;;;;8.02;29.74;164535.38;4976387;28;20066;-67
2022/03/13 08:37:23;;;;;;;1999.90;999.90;;;;;;;8.64;29.24;164701.84;4962749;28;20443;-67
2022/03/13 08:39:50;;;;;;;1999.90;999.90;;;;;;;8.67;28.50;164708.72;4970053;28;20055;-68
2022/03/13 08:42:17;;;;;;;1999.90;999.90;;;;;;;9.07;28.27;164817.38;4960951;28;20058;-68
2022/03/13 08:44:44;;;;;;;1999.90;999.90;;;;;;;9.55;27.25;164945.34;4962281;28;20054;-68
2022/03/13 08:47:10;;;;;;;1999.90;999.90;;;;;;;8.75;27.57;164732.13;4966835;28;20055;-67
2022/03/13 08:49:37;;;;;;;1999.90;999.90;;;;;;;8.65;27.00;164704.59;4966859;28;20125;-68
2022/03/13 08:52:05;;;;;;;1999.90;999.90;;;;;;;9.10;28.68;164825.63;4971230;28;20062;-68
2022/03/13 08:54:32;;;;;;;1999.90;999.90;;;;;;;8.23;28.05;164591.75;4966120;28;20057;-67
2022/03/13 08:56:58;;;;;;;1999.90;999.90;;;;;;;7.52;29.22;164402.06;4970227;28;20066;-68
2022/03/13 08:59:25;;;;;;;1999.90;999.90;;;;;;;8.53;29.68;164671.56;4966278;28;20054;-68
2022/03/13 09:01:52;;;;;;;1999.90;999.90;;;;;;;9.74;28.06;164996.28;4972759;28;20057;-68
2022/03/13 09:04:19;;;;;;;1999.90;999.90;;;;;;;10.16;27.54;165109.16;4973475;28;20100;-67
2022/03/13 09:06:46;;;;;;;1999.90;999.90;;;;;;;9.80;27.87;165011.44;4960672;28;20616;-68
2022/03/13 09:09:13;;;;;;;1999.90;999.90;;;;;;;10.16;26.98;165109.16;4972898;28;20058;-67
2022/03/13 09:11:40;;;;;;;1999.90;999.90;;;;;;;9.95;27.12;165052.72;4973325;28;20054;-67
2022/03/13 09:14:08;;;;;;;1999.90;999.90;;;;;;;11.05;26.22;165347.47;4970728;28;20057;-67
2022/03/13 09:16:38;;;;;;;1999.90;999.90;;;;;;;10.97;25.53;165324.03;4961122;28;20368;-68
2022/03/13 09:19:05;;;;;;;1999.90;999.90;;;;;;;11.46;25.49;165456.31;4969283;28;20051;-68
2022/03/13 09:21:34;;;;;;;1999.90;999.90;;;;;;;11.24;26.07;165398.47;4970456;28;20055;-68
2022/03/13 09:24:01;;;;;;;1999.90;999.90;;;;;;;11.78;26.04;165541.78;4965490;28;20054;-68
2022/03/13 09:26:28;;;;;;;1999.90;999.90;;;;;;;10.57;26.55;165219.38;4956552;28;20051;-68
2022/03/13 09:28:54;;;;;;;1999.90;999.90;;;;;;;9.66;26.65;164975.66;4951426;28;20560;-68
2022/03/13 09:31:21;;;;;;;1999.90;999.90;;;;;;;9.14;27.08;164836.66;4965781;28;20047;-68
2022/03/13 09:33:48;;;;;;;1999.90;999.90;;;;;;;7.59;29.09;164421.25;4956897;28;20058;-67
2022/03/13 09:36:14;;;;;;;1999.90;999.90;;;;;;;8.97;27.37;164789.88;4971175;28;20062;-68
2022/03/13 09:38:41;;;;;;;1999.90;999.90;;;;;;;8.25;27.66;164597.28;4959087;28;20049;-67
2022/03/13 09:41:08;;;;;;;1999.90;999.90;;;;;;;8.39;28.04;164635.75;4975394;28;20057;-67
2022/03/13 09:43:35;;;;;;;1999.90;999.90;;;;;;;9.43;28.54;164912.34;4973554;28;20046;-68
2022/03/13 09:46:01;;;;;;;1999.90;999.90;;;;;;;9.01;28.01;164800.88;4962340;28;20054;-68
2022/03/13 09:48:29;;;;;;;1999.90;999.90;;;;;;;8.80;28.71;164744.50;4969983;28;20050;-68
2022/03/13 09:50:56;;;;;;;1999.90;999.90;;;;;;;8.86;29.22;164759.56;4959740;28;20051;-67
2022/03/13 09:53:22;;;;;;;1999.90;999.90;;;;;;;9.23;27.86;164858.66;4966283;28;20051;-68
2022/03/13 09:55:49;;;;;;;1999.90;999.90;;;;;;;10.28;27.46;165139.47;4953377;28;20537;-68
2022/03/13 09:58:15;;;;;;;1999.90;999.90;;;;;;;7.93;27.87;164512.00;4967033;28;20277;-67
2022/03/13 10:00:42;;;;;;;1999.90;999.90;;;;;;;8.03;28.81;164539.50;4980404;28;20105;-67
2022/03/13 10:03:11;;;;;;;1999.90;999.90;;;;;;;9.58;27.68;164953.59;4965118;28;20052;-67
2022/03/13 10:05:46;;;;;;;1999.90;999.90;;;;;;;9.38;27.21;164898.56;4979986;28;20054;-68
2022/03/13 10:08:15;;;;;;;1999.90;999.90;;;;;;;9.63;26.48;164966.00;4964603;28;20467;-68
2022/03/13 10:10:50;;;;;;;1999.90;999.90;;;;;;;9.42;28.06;164909.56;4963190;28;20046;-67
2022/03/13 10:13:33;;;;;;;1999.90;999.90;;;;;;;9.64;27.57;164970.13;4959436;28;20062;-68
2022/03/13 10:16:00;;;;;;;1999.90;999.90;;;;;;;9.35;27.71;164891.72;4965698;28;20364;-68
2022/03/13 10:18:27;;;;;;;1999.90;999.90;;;;;;;9.31;28.36;164882.03;4961443;28;20379;-67
2022/03/13 10:21:05;;;;;;;1999.90;999.90;;;;;;;9.27;27.59;164869.66;4968303;28;20088;-68
2022/03/13 10:23:32;;;;;;;1999.90;999.90;;;;;;;9.51;28.00;164934.31;4959426;28;20471;-67
2022/03/13 10:25:59;;;;;;;1999.90;999.90;;;;;;;7.86;29.63;164492.75;4951769;28;20051;-66
2022/03/13 10:28:30;;;;;;;1999.90;999.90;;;;;;;9.89;27.31;165034.84;4967483;28;20347;-67
2022/03/13 10:30:59;;;;;;;1999.90;999.90;;;;;;;8.54;28.45;164674.31;4961836;28;20065;-67
2022/03/13 10:33:45;;;;;;;1999.90;999.90;;;;;;;9.99;27.70;165062.38;4969373;28;20075;-68
2022/03/13 10:36:18;;;;;;;1999.90;999.90;;;;;;;11.30;26.17;165412.22;4966176;28;20058;-68
2022/03/13 10:38:46;;;;;;;1999.90;999.90;;;;;;;10.62;26.87;165230.41;4976931;28;20082;-67
2022/03/13 10:41:13;;;;;;;1999.90;999.90;;;;;;;12.06;24.84;165617.63;4958326;28;20058;-67
2022/03/13 10:43:54;;;;;;;1999.90;999.90;;;;;;;11.84;25.02;165558.31;4998630;28;20065;-68
2022/03/13 10:46:29;;;;;;;1999.90;999.90;;;;;;;11.54;23.89;165478.38;4980346;28;20208;-68
2022/03/13 10:48:59;;;;;;;1999.90;999.90;;;;;;;11.45;24.49;165453.59;4962065;28;20054;-68
2022/03/13 10:51:41;;;;;;;1999.90;999.90;;;;;;;12.29;23.40;165679.66;4953427;28;20057;-67
2022/03/13 10:54:08;;;;;;;1999.90;999.90;;;;;;;12.76;23.92;165803.72;4967888;28;20472;-68
2022/03/13 10:56:34;;;;;;;1999.90;999.90;;;;;;;13.61;22.78;166031.44;4979655;28;20051;-67
2022/03/13 10:59:17;;;;;;;1999.90;999.90;;;;;;;12.42;22.45;165714.13;4961317;28;20046;-67